Time;durP1;ratioP1;P1;durP2;ratioP2;P2;SDS_P1;SDS_P2;PMS_P1;PMS_P2;Temp;Humidity;BMP_temperature;BMP_pressure;BME280_temperature;BME280_humidity;BME280_pressure;Samples;Min_cycle;Max_cycle;Signal;HPM_P1;HPM_P2
2021/05/27 00:01:10;;;;;;;3.23;3.00;;;11.90;96.10;;;;;;5012668;28;20663;-49
2021/05/27 00:03:37;;;;;;;3.70;3.00;;;11.90;96.00;;;;;;5012638;28;20726;-49
2021/05/27 00:06:04;;;;;;;5.97;3.27;;;11.80;96.10;;;;;;5011938;28;20781;-50
2021/05/27 00:08:30;;;;;;;5.73;4.90;;;11.80;96.10;;;;;;5014540;28;20635;-49
2021/05/27 00:10:57;;;;;;;4.30;3.10;;;11.80;96.10;;;;;;5012554;28;21280;-50
2021/05/27 00:13:24;;;;;;;4.30;3.07;;;11.80;96.00;;;;;;4997835;28;20660;-49
2021/05/27 00:15:51;;;;;;;4.07;3.40;;;11.80;96.00;;;;;;5008355;28;20741;-49
2021/05/27 00:18:18;;;;;;;2.97;2.77;;;11.80;96.10;;;;;;5028759;28;20653;-49
2021/05/27 00:20:45;;;;;;;3.90;3.60;;;11.80;96.10;;;;;;5012402;28;21391;-49
2021/05/27 00:23:12;;;;;;;6.80;4.40;;;11.70;96.10;;;;;;5012788;28;20660;-49
2021/05/27 00:25:38;;;;;;;3.17;2.87;;;11.70;96.20;;;;;;5012430;28;21249;-49
2021/05/27 00:28:05;;;;;;;4.13;3.50;;;11.70;96.30;;;;;;4993243;28;20693;-49
2021/05/27 00:30:32;;;;;;;6.07;3.47;;;11.70;96.40;;;;;;4992784;28;20652;-49
2021/05/27 00:32:58;;;;;;;4.20;3.80;;;11.70;96.20;;;;;;5003983;28;21083;-49
2021/05/27 00:35:26;;;;;;;4.00;3.53;;;11.70;96.30;;;;;;5012302;28;20687;-49
2021/05/27 00:37:53;;;;;;;4.97;3.70;;;11.60;96.30;;;;;;5012197;28;20675;-50
2021/05/27 00:40:19;;;;;;;6.53;3.17;;;11.60;96.40;;;;;;5012362;28;20691;-49
2021/05/27 00:42:48;;;;;;;5.50;3.80;;;11.60;96.40;;;;;;5003365;28;20640;-49
2021/05/27 00:45:16;;;;;;;5.03;3.30;;;11.50;96.30;;;;;;4992752;28;20616;-49
2021/05/27 00:47:43;;;;;;;10.23;3.93;;;11.50;96.50;;;;;;4992780;28;20652;-49
2021/05/27 00:50:20;;;;;;;3.70;3.40;;;11.50;96.60;;;;;;4992757;28;20656;-49
2021/05/27 00:52:48;;;;;;;4.77;4.20;;;11.50;96.70;;;;;;4993090;28;20659;-49
2021/05/27 00:55:15;;;;;;;4.90;2.77;;;11.50;96.70;;;;;;4992728;28;20633;-49
2021/05/27 00:57:42;;;;;;;5.00;3.77;;;11.40;96.60;;;;;;4992699;28;20653;-49
2021/05/27 01:00:10;;;;;;;4.10;3.70;;;11.50;96.70;;;;;;4993287;28;20695;-49
2021/05/27 01:02:36;;;;;;;7.60;5.50;;;11.50;97.10;;;;;;5000616;28;20997;-49
2021/05/27 01:05:04;;;;;;;5.53;4.97;;;11.50;96.80;;;;;;5012187;28;20656;-50
2021/05/27 01:07:31;;;;;;;4.57;4.17;;;11.50;96.80;;;;;;5010175;28;20628;-49
2021/05/27 01:09:59;;;;;;;9.33;3.80;;;11.50;96.80;;;;;;5011971;28;20656;-50
2021/05/27 01:12:25;;;;;;;4.07;3.70;;;11.40;96.80;;;;;;5012068;28;20652;-49
2021/05/27 01:17:37;;;;;;;6.83;3.60;;;11.50;96.90;;;;;;5008920;28;20620;-49
2021/05/27 01:20:05;;;;;;;4.47;4.17;;;11.50;96.90;;;;;;5030003;28;20683;-49
2021/05/27 01:22:33;;;;;;;4.73;4.33;;;11.50;96.90;;;;;;5031621;28;20649;-49
2021/05/27 01:24:59;;;;;;;4.73;4.33;;;11.40;96.90;;;;;;5032023;28;20623;-49
2021/05/27 01:27:26;;;;;;;4.20;3.90;;;11.50;97.00;;;;;;5031318;28;20698;-49
2021/05/27 01:29:53;;;;;;;8.70;4.47;;;11.50;97.00;;;;;;5031101;28;20655;-49
2021/05/27 01:32:20;;;;;;;4.40;4.00;;;11.50;97.10;;;;;;5003097;28;20956;-49
2021/05/27 01:34:46;;;;;;;5.53;4.57;;;11.50;97.10;;;;;;4992000;28;20629;-49
2021/05/27 01:37:13;;;;;;;4.10;3.73;;;11.50;97.10;;;;;;4992384;28;20715;-49
2021/05/27 01:39:45;;;;;;;6.90;4.57;;;11.40;97.20;;;;;;4992132;28;21190;-48
2021/05/27 01:42:11;;;;;;;5.50;5.00;;;11.50;97.30;;;;;;4991975;28;20658;-48
2021/05/27 01:44:38;;;;;;;5.10;4.70;;;11.50;97.20;;;;;;4992088;28;20763;-48
2021/05/27 01:47:05;;;;;;;5.10;4.60;;;11.50;97.20;;;;;;4990585;28;21110;-48
2021/05/27 01:49:33;;;;;;;6.53;4.63;;;11.50;97.30;;;;;;4991738;28;20644;-48
2021/05/27 01:51:59;;;;;;;9.70;5.80;;;11.50;97.30;;;;;;4991744;28;20659;-48
2021/05/27 01:54:26;;;;;;;7.13;5.30;;;11.50;97.30;;;;;;4991562;28;21201;-48
2021/05/27 01:56:53;;;;;;;5.00;4.60;;;11.50;97.40;;;;;;4991578;28;20715;-48
2021/05/27 01:59:20;;;;;;;6.47;5.83;;;11.50;97.50;;;;;;4991162;28;20663;-48
2021/05/27 02:01:47;;;;;;;7.37;6.40;;;11.50;97.50;;;;;;4992879;28;21138;-49
2021/05/27 02:04:14;;;;;;;6.63;6.03;;;11.50;97.50;;;;;;5010449;28;20651;-48
2021/05/27 02:06:40;;;;;;;9.63;5.97;;;11.50;97.40;;;;;;5011449;28;20683;-48
2021/05/27 02:09:09;;;;;;;5.80;5.40;;;11.50;97.50;;;;;;5010588;28;21142;-48
2021/05/27 02:11:36;;;;;;;6.30;5.70;;;11.50;97.50;;;;;;5010375;28;21220;-48
2021/05/27 02:14:05;;;;;;;7.93;6.60;;;11.50;97.60;;;;;;4998975;28;20661;-48
2021/05/27 02:16:31;;;;;;;7.77;5.73;;;11.50;97.60;;;;;;4991419;28;21034;-49
2021/05/27 02:18:58;;;;;;;7.47;6.60;;;11.50;97.60;;;;;;4990701;28;20664;-48
2021/05/27 02:21:25;;;;;;;7.50;6.53;;;11.50;97.70;;;;;;5002880;28;20723;-48
2021/05/27 02:23:53;;;;;;;6.97;6.27;;;11.50;97.70;;;;;;5010984;28;20662;-48
2021/05/27 02:26:20;;;;;;;6.77;6.17;;;11.40;97.70;;;;;;5010416;28;20655;-48
2021/05/27 02:28:46;;;;;;;7.17;6.57;;;11.40;97.70;;;;;;5009593;28;20782;-49
2021/05/27 02:31:14;;;;;;;6.50;5.90;;;11.50;97.80;;;;;;5010315;28;20678;-49
2021/05/27 02:33:41;;;;;;;8.60;7.80;;;11.40;97.70;;;;;;5010537;28;20668;-48
2021/05/27 02:36:08;;;;;;;9.20;7.70;;;11.40;97.70;;;;;;5009592;28;20757;-48
2021/05/27 02:38:36;;;;;;;11.30;8.77;;;11.40;97.70;;;;;;4991160;28;21209;-48
2021/05/27 02:41:02;;;;;;;8.03;7.23;;;11.40;97.80;;;;;;4997522;28;21076;-49
2021/05/27 02:43:29;;;;;;;8.27;6.90;;;11.40;97.90;;;;;;5010377;28;21175;-49
2021/05/27 02:45:56;;;;;;;7.80;7.03;;;11.40;97.90;;;;;;5010415;28;20702;-49
2021/05/27 02:48:24;;;;;;;8.87;7.93;;;11.40;97.90;;;;;;5009896;28;20667;-49
2021/05/27 02:50:50;;;;;;;7.60;6.90;;;11.40;97.90;;;;;;5010092;28;20663;-49
2021/05/27 02:53:17;;;;;;;9.30;8.40;;;11.40;97.90;;;;;;5008657;28;21282;-49
2021/05/27 02:55:44;;;;;;;8.90;7.43;;;11.40;97.90;;;;;;5009490;28;20691;-49
2021/05/27 02:58:10;;;;;;;7.63;6.93;;;11.40;98.00;;;;;;5009918;28;20628;-50
2021/05/27 03:00:37;;;;;;;7.10;6.50;;;11.40;97.90;;;;;;5009760;28;20695;-49
2021/05/27 03:03:05;;;;;;;12.63;7.00;;;11.40;97.90;;;;;;5010146;28;20668;-49
2021/05/27 03:05:32;;;;;;;15.83;8.57;;;11.40;98.00;;;;;;5012832;28;20699;-51
2021/05/27 03:07:59;;;;;;;10.00;6.70;;;11.40;98.00;;;;;;5013598;28;21149;-50
2021/05/27 03:10:26;;;;;;;7.73;7.03;;;11.40;98.10;;;;;;5012760;28;20674;-50
2021/05/27 03:12:52;;;;;;;7.80;7.00;;;11.40;98.20;;;;;;5013693;28;21153;-50
2021/05/27 03:15:19;;;;;;;7.00;6.40;;;11.40;98.10;;;;;;5023004;28;20688;-50
2021/05/27 03:17:46;;;;;;;9.90;6.33;;;11.50;98.00;;;;;;5013777;28;20642;-50
2021/05/27 03:20:13;;;;;;;12.80;8.57;;;11.50;97.90;;;;;;5014254;28;20695;-49
2021/05/27 03:22:41;;;;;;;7.77;7.07;;;11.40;97.90;;;;;;5013508;28;20655;-48
2021/05/27 03:25:08;;;;;;;7.23;6.53;;;11.50;98.00;;;;;;5015307;28;20628;-49
2021/05/27 03:27:35;;;;;;;7.47;6.77;;;11.40;97.90;;;;;;5011544;28;21001;-50
2021/05/27 03:30:02;;;;;;;9.33;7.80;;;11.40;98.00;;;;;;5013914;28;20650;-50
2021/05/27 03:32:29;;;;;;;9.87;7.60;;;11.40;98.00;;;;;;5013962;28;20778;-48
2021/05/27 03:34:55;;;;;;;8.80;7.77;;;11.40;97.90;;;;;;5006686;28;20660;-47
2021/05/27 03:37:22;;;;;;;7.30;6.70;;;11.40;97.90;;;;;;5009108;28;21063;-48
2021/05/27 03:42:34;;;;;;;8.20;7.40;;;11.40;97.70;;;;;;5012237;28;20620;-48
2021/05/27 03:45:04;;;;;;;7.67;6.93;;;11.40;98.10;;;;;;5013838;28;20679;-48
2021/05/27 03:47:31;;;;;;;7.60;7.00;;;11.40;97.80;;;;;;5012926;28;20646;-48
2021/05/27 03:49:58;;;;;;;8.13;7.53;;;11.40;97.70;;;;;;5012746;28;20675;-48
2021/05/27 03:52:24;;;;;;;8.43;7.63;;;11.40;97.70;;;;;;4997427;28;20656;-49
2021/05/27 03:54:52;;;;;;;10.13;7.63;;;11.50;97.70;;;;;;4993282;28;20683;-49
2021/05/27 03:57:19;;;;;;;5.40;4.97;;;11.40;97.60;;;;;;4993444;28;20725;-48
2021/05/27 04:02:30;;;;;;;10.70;7.83;;;11.40;97.60;;;;;;5001146;28;20643;-49
2021/05/27 04:07:42;;;;;;;5.50;5.00;;;11.40;97.60;;;;;;5012605;28;20685;-48
2021/05/27 04:10:10;;;;;;;7.40;6.70;;;11.50;97.60;;;;;;5012605;28;20933;-49
2021/05/27 04:12:46;;;;;;;11.17;7.77;;;11.40;97.50;;;;;;5012868;28;20616;-48
2021/05/27 04:15:21;;;;;;;8.60;7.80;;;11.40;97.60;;;;;;5012067;28;20669;-48
2021/05/27 04:17:49;;;;;;;8.63;6.40;;;11.40;97.60;;;;;;4991848;28;20655;-48
2021/05/27 04:20:16;;;;;;;6.53;6.03;;;11.50;97.90;;;;;;4994787;28;21242;-48
2021/05/27 04:22:43;;;;;;;8.13;7.33;;;11.50;97.50;;;;;;5012344;28;20659;-49
2021/05/27 04:25:12;;;;;;;7.97;7.30;;;11.40;97.40;;;;;;5012083;28;20750;-48
2021/05/27 04:27:49;;;;;;;9.37;7.53;;;11.40;97.50;;;;;;5012284;28;20698;-48
2021/05/27 04:30:17;;;;;;;8.30;7.63;;;11.40;97.50;;;;;;5000633;28;20648;-48
2021/05/27 04:32:55;;;;;;;12.07;8.27;;;11.40;97.60;;;;;;5002499;28;20666;-49
2021/05/27 04:35:32;;;;;;;9.40;8.53;;;11.40;97.60;;;;;;5011843;28;21268;-49
2021/05/27 04:38:00;;;;;;;8.20;7.50;;;11.40;97.60;;;;;;5011694;28;20700;-48
2021/05/27 04:40:28;;;;;;;9.67;8.70;;;11.40;97.60;;;;;;5012055;28;20714;-49
2021/05/27 04:42:55;;;;;;;9.47;8.60;;;11.40;97.60;;;;;;5011984;28;20623;-48
2021/05/27 04:45:22;;;;;;;9.10;7.60;;;11.40;97.50;;;;;;5011693;28;21150;-48
2021/05/27 04:47:49;;;;;;;10.03;9.03;;;11.40;97.50;;;;;;5010189;28;20671;-48
2021/05/27 04:50:16;;;;;;;9.23;8.33;;;11.30;97.50;;;;;;5011899;28;20689;-49
2021/05/27 04:52:42;;;;;;;8.70;7.80;;;11.40;97.50;;;;;;5012370;28;20734;-49
2021/05/27 04:55:12;;;;;;;11.80;9.60;;;11.40;97.50;;;;;;5000729;28;20663;-49
2021/05/27 04:57:39;;;;;;;8.03;7.10;;;11.40;97.50;;;;;;5007333;28;20664;-49
2021/05/27 05:00:08;;;;;;;8.97;8.03;;;11.40;97.40;;;;;;4992089;28;21250;-49
2021/05/27 05:02:35;;;;;;;11.37;9.90;;;11.40;97.50;;;;;;5017787;28;20670;-48
2021/05/27 05:05:01;;;;;;;9.10;8.40;;;11.40;97.50;;;;;;5017674;28;20670;-48
2021/05/27 05:07:28;;;;;;;9.83;8.30;;;11.40;97.60;;;;;;5030690;28;20646;-50
2021/05/27 05:09:55;;;;;;;9.00;8.10;;;11.30;97.50;;;;;;5020443;28;20659;-49
2021/05/27 05:12:21;;;;;;;10.40;8.07;;;11.30;97.40;;;;;;5002677;28;21033;-48
2021/05/27 05:14:49;;;;;;;10.27;9.00;;;11.30;97.50;;;;;;5020000;28;20638;-48
2021/05/27 05:17:16;;;;;;;9.07;8.27;;;11.40;97.50;;;;;;5011001;28;20691;-48
2021/05/27 05:19:42;;;;;;;9.73;8.73;;;11.40;97.50;;;;;;5010824;28;20652;-49
2021/05/27 05:22:09;;;;;;;12.27;10.00;;;11.50;97.30;;;;;;5000116;28;20722;-49
2021/05/27 05:24:36;;;;;;;9.93;9.03;;;11.50;97.30;;;;;;4990235;28;20682;-48
2021/05/27 05:27:03;;;;;;;15.00;10.10;;;11.50;97.10;;;;;;4991153;28;21033;-48
2021/05/27 05:29:30;;;;;;;10.70;9.60;;;11.50;97.00;;;;;;4991102;28;20660;-48
2021/05/27 05:31:58;;;;;;;10.17;9.10;;;11.50;97.10;;;;;;4992295;28;20672;-48
2021/05/27 05:34:24;;;;;;;8.70;7.90;;;11.50;97.00;;;;;;5011262;28;20671;-47
2021/05/27 05:36:51;;;;;;;9.50;8.70;;;11.50;97.10;;;;;;5010574;28;20706;-49
2021/05/27 05:39:18;;;;;;;12.43;9.53;;;11.50;97.10;;;;;;5010729;28;20668;-48
2021/05/27 05:41:44;;;;;;;9.93;8.77;;;11.50;97.20;;;;;;5010386;28;20695;-50
2021/05/27 05:44:11;;;;;;;10.50;9.60;;;11.50;97.30;;;;;;5007773;28;20620;-49
2021/05/27 05:46:38;;;;;;;9.37;8.57;;;11.50;97.30;;;;;;5008513;28;20706;-49
2021/05/27 05:49:05;;;;;;;9.70;8.60;;;11.40;97.30;;;;;;5009253;28;20662;-53
2021/05/27 05:51:32;;;;;;;9.07;7.23;;;11.50;97.10;;;;;;5010636;28;20632;-50
2021/05/27 05:53:59;;;;;;;8.70;7.80;;;11.50;97.20;;;;;;5010696;28;20663;-48
2021/05/27 05:56:26;;;;;;;8.93;8.07;;;11.50;97.20;;;;;;5004613;28;20703;-49
2021/05/27 05:58:52;;;;;;;15.20;9.47;;;11.50;97.10;;;;;;4991425;28;20664;-50
2021/05/27 06:01:19;;;;;;;10.60;9.60;;;11.60;97.20;;;;;;4992682;28;20722;-50
2021/05/27 06:03:46;;;;;;;10.03;8.47;;;11.60;97.00;;;;;;5006861;28;20635;-50
2021/05/27 06:06:13;;;;;;;9.23;8.30;;;11.60;96.90;;;;;;4996783;28;20706;-50
2021/05/27 06:08:40;;;;;;;10.20;9.30;;;11.60;97.00;;;;;;4990595;28;20703;-49
2021/05/27 06:11:07;;;;;;;8.93;8.13;;;11.60;97.10;;;;;;4990415;28;20653;-50
2021/05/27 06:13:34;;;;;;;8.23;7.53;;;11.50;97.00;;;;;;5008277;28;20644;-47
2021/05/27 06:16:01;;;;;;;10.17;9.17;;;11.60;97.10;;;;;;5010572;28;20702;-48
2021/05/27 06:18:27;;;;;;;9.53;8.83;;;11.50;97.10;;;;;;5008811;28;20662;-48
2021/05/27 06:20:54;;;;;;;10.23;7.80;;;11.50;97.10;;;;;;4993026;28;20688;-49
2021/05/27 06:23:22;;;;;;;10.33;9.27;;;11.50;97.10;;;;;;4990681;28;20667;-50
2021/05/27 06:25:48;;;;;;;8.53;7.80;;;11.60;97.10;;;;;;4991003;28;20679;-49
2021/05/27 06:28:15;;;;;;;9.20;8.40;;;11.60;96.90;;;;;;4990022;28;20663;-49
2021/05/27 06:30:42;;;;;;;9.13;8.23;;;11.70;96.80;;;;;;4990723;28;20679;-50
2021/05/27 06:33:09;;;;;;;9.10;8.00;;;11.70;96.80;;;;;;5000589;28;20658;-49
2021/05/27 06:35:36;;;;;;;10.10;9.20;;;11.70;96.70;;;;;;5008757;28;20702;-49
2021/05/27 06:38:02;;;;;;;9.70;8.63;;;11.80;96.80;;;;;;5003442;28;20975;-49
2021/05/27 06:40:30;;;;;;;8.67;7.63;;;11.80;96.70;;;;;;5000472;28;20691;-50
2021/05/27 06:42:57;;;;;;;9.00;8.30;;;11.90;96.60;;;;;;4990281;28;21023;-49
2021/05/27 06:45:24;;;;;;;9.60;8.07;;;11.90;96.40;;;;;;4988316;28;20733;-50
2021/05/27 06:47:50;;;;;;;8.77;7.90;;;11.90;96.40;;;;;;4990482;28;21185;-49
2021/05/27 06:50:31;;;;;;;9.43;7.97;;;11.90;96.40;;;;;;4990335;28;20680;-49
2021/05/27 06:52:59;;;;;;;7.93;7.23;;;11.90;96.40;;;;;;4990467;28;20990;-48
2021/05/27 06:55:26;;;;;;;8.80;8.00;;;12.00;96.40;;;;;;4990132;28;21148;-49
2021/05/27 06:57:54;;;;;;;7.83;7.13;;;12.00;96.60;;;;;;4990151;28;21186;-48
2021/05/27 07:00:22;;;;;;;7.97;7.17;;;12.00;96.50;;;;;;4989786;28;20671;-48
2021/05/27 07:02:51;;;;;;;10.00;8.03;;;12.00;96.50;;;;;;4998056;28;20695;-48
2021/05/27 07:05:17;;;;;;;8.63;6.67;;;12.00;96.50;;;;;;5009739;28;20739;-49
2021/05/27 07:07:44;;;;;;;9.27;8.37;;;12.00;96.50;;;;;;5009275;28;21157;-50
2021/05/27 07:10:13;;;;;;;7.00;6.40;;;12.10;96.50;;;;;;5009617;28;20663;-49
2021/05/27 07:12:46;;;;;;;7.37;6.77;;;12.10;96.40;;;;;;5009748;28;20715;-50
2021/05/27 07:15:15;;;;;;;6.20;5.70;;;12.10;96.50;;;;;;5020724;28;20666;-48
2021/05/27 07:17:41;;;;;;;11.60;7.83;;;12.20;96.30;;;;;;5029048;28;20638;-50
2021/05/27 07:20:09;;;;;;;7.13;6.53;;;12.20;96.10;;;;;;5029536;28;20647;-49
2021/05/27 07:22:36;;;;;;;7.30;6.60;;;12.30;96.10;;;;;;5029260;28;20762;-50
2021/05/27 07:25:03;;;;;;;12.40;7.30;;;12.40;96.00;;;;;;5029269;28;20684;-49
2021/05/27 07:27:30;;;;;;;8.50;7.00;;;12.40;95.90;;;;;;5029571;28;21373;-49
2021/05/27 07:29:57;;;;;;;7.00;6.47;;;12.50;95.90;;;;;;5029604;28;20654;-50
2021/05/27 07:32:25;;;;;;;7.70;7.03;;;12.60;95.80;;;;;;5023800;28;20709;-49
2021/05/27 07:34:52;;;;;;;6.60;6.10;;;12.70;95.60;;;;;;5009275;28;20642;-49
2021/05/27 07:37:18;;;;;;;7.40;6.70;;;12.90;95.40;;;;;;5009379;28;21026;-50
2021/05/27 07:39:45;;;;;;;6.03;5.53;;;12.90;95.30;;;;;;5009396;28;20643;-50
2021/05/27 07:42:12;;;;;;;8.23;6.83;;;13.00;95.10;;;;;;5009177;28;20754;-50
2021/05/27 07:44:39;;;;;;;7.13;5.60;;;13.00;95.20;;;;;;5009680;28;20678;-48
2021/05/27 07:47:06;;;;;;;6.70;6.10;;;13.20;95.00;;;;;;5008841;28;20675;-49
2021/05/27 07:49:33;;;;;;;6.10;5.50;;;13.20;94.70;;;;;;5008859;28;21003;-49
2021/05/27 07:52:00;;;;;;;7.23;6.67;;;13.20;94.90;;;;;;5009267;28;20947;-49
2021/05/27 07:54:27;;;;;;;6.87;6.23;;;13.30;94.70;;;;;;5012492;28;20659;-48
2021/05/27 07:56:54;;;;;;;7.47;6.70;;;13.30;95.10;;;;;;5012849;28;20710;-49
2021/05/27 07:59:20;;;;;;;6.17;5.67;;;13.40;95.10;;;;;;5012910;28;20624;-49
2021/05/27 08:01:47;;;;;;;7.80;5.43;;;13.60;94.90;;;;;;5012702;28;21323;-48
2021/05/27 08:04:14;;;;;;;6.17;5.57;;;13.70;94.20;;;;;;5013051;28;21042;-48
2021/05/27 08:06:42;;;;;;;7.40;6.70;;;13.70;94.30;;;;;;5012671;28;20683;-48
2021/05/27 08:09:10;;;;;;;11.53;7.03;;;13.70;94.10;;;;;;5012235;28;20655;-48
2021/05/27 08:11:37;;;;;;;7.37;6.70;;;13.70;94.30;;;;;;5012719;28;20655;-48
2021/05/27 08:14:04;;;;;;;7.50;6.70;;;13.70;94.50;;;;;;5012651;28;20690;-48
2021/05/27 08:16:31;;;;;;;9.63;6.60;;;13.80;94.40;;;;;;5012895;28;20659;-48
2021/05/27 08:18:58;;;;;;;6.53;5.90;;;13.90;94.10;;;;;;5011919;28;21204;-48
2021/05/27 08:21:25;;;;;;;7.53;5.50;;;14.00;94.20;;;;;;5012505;28;21245;-48
2021/05/27 08:23:52;;;;;;;5.87;5.33;;;14.20;94.10;;;;;;5012366;28;20697;-48
2021/05/27 08:26:19;;;;;;;7.90;7.20;;;14.30;93.80;;;;;;5012291;28;20683;-48
2021/05/27 08:28:47;;;;;;;6.60;6.00;;;14.50;93.60;;;;;;5012126;28;20670;-48
2021/05/27 08:31:13;;;;;;;7.47;5.47;;;14.50;92.80;;;;;;5012177;28;20643;-49
2021/05/27 08:33:40;;;;;;;6.87;6.27;;;14.50;92.90;;;;;;5012014;28;20966;-47
2021/05/27 08:36:07;;;;;;;6.93;6.00;;;14.50;92.90;;;;;;5011849;28;20698;-49
2021/05/27 08:38:34;;;;;;;9.20;5.07;;;14.50;92.80;;;;;;5011652;28;20663;-49
2021/05/27 08:41:02;;;;;;;7.90;6.20;;;14.40;92.20;;;;;;5012386;28;20670;-49
2021/05/27 08:43:29;;;;;;;6.33;5.13;;;14.40;92.40;;;;;;5011993;28;21092;-49
2021/05/27 08:45:57;;;;;;;6.70;6.00;;;14.30;92.20;;;;;;5011913;28;20687;-49
2021/05/27 08:48:23;;;;;;;8.50;6.63;;;14.10;92.40;;;;;;5011448;28;21250;-48
2021/05/27 08:50:51;;;;;;;6.80;6.20;;;13.90;92.50;;;;;;5011743;28;20664;-48
2021/05/27 08:53:19;;;;;;;9.70;8.57;;;13.80;92.70;;;;;;5011627;28;20659;-49
2021/05/27 08:55:46;;;;;;;6.30;5.80;;;13.90;92.70;;;;;;5011560;28;21244;-48
2021/05/27 08:58:14;;;;;;;6.83;6.23;;;13.90;92.40;;;;;;5011331;28;20654;-48
2021/05/27 09:00:41;;;;;;;6.60;5.90;;;13.90;92.30;;;;;;5011782;28;20658;-48
2021/05/27 09:03:09;;;;;;;7.03;6.40;;;13.90;92.40;;;;;;5010437;28;21114;-48
2021/05/27 09:05:37;;;;;;;8.03;7.23;;;14.00;92.50;;;;;;5011947;28;21063;-48
2021/05/27 09:08:04;;;;;;;6.30;5.70;;;14.20;92.50;;;;;;5011521;28;20634;-48
2021/05/27 09:10:41;;;;;;;5.60;4.93;;;14.40;92.20;;;;;;5011906;28;20659;-48
2021/05/27 09:13:09;;;;;;;6.53;5.93;;;14.50;91.90;;;;;;5011456;28;20654;-49
2021/05/27 09:15:37;;;;;;;6.80;5.17;;;14.50;91.30;;;;;;5011193;28;20687;-48
2021/05/27 09:18:04;;;;;;;5.23;4.73;;;14.60;91.30;;;;;;5011182;28;20942;-47
2021/05/27 09:20:31;;;;;;;7.13;5.53;;;14.60;91.00;;;;;;5011422;28;20659;-48
2021/05/27 09:23:12;;;;;;;7.27;4.87;;;14.70;91.10;;;;;;5010718;28;21196;-50
2021/05/27 09:25:40;;;;;;;5.30;4.90;;;14.60;90.60;;;;;;5010454;28;21267;-50
2021/05/27 09:28:08;;;;;;;6.47;5.57;;;14.50;91.10;;;;;;5010643;28;20984;-49
2021/05/27 09:30:45;;;;;;;5.37;4.90;;;14.50;90.50;;;;;;5011912;28;20678;-49
2021/05/27 09:33:12;;;;;;;5.07;4.50;;;14.50;90.90;;;;;;5010822;28;20657;-49
2021/05/27 09:35:39;;;;;;;5.03;4.53;;;14.60;90.90;;;;;;5010671;28;20700;-50
2021/05/27 09:38:06;;;;;;;5.70;5.20;;;14.70;90.90;;;;;;5010118;28;20653;-50
2021/05/27 09:40:35;;;;;;;5.60;4.73;;;14.70;90.40;;;;;;5010942;28;20659;-50
2021/05/27 09:43:02;;;;;;;5.43;5.03;;;14.80;90.40;;;;;;5010215;28;20699;-49
2021/05/27 09:45:30;;;;;;;5.03;4.63;;;14.80;90.20;;;;;;5011252;28;20648;-49
2021/05/27 09:47:58;;;;;;;5.97;4.60;;;14.90;90.10;;;;;;5010616;28;20671;-50
2021/05/27 09:50:31;;;;;;;4.23;3.83;;;15.00;90.00;;;;;;5010802;28;20690;-50
2021/05/27 09:53:12;;;;;;;7.60;4.97;;;15.00;89.90;;;;;;5009262;28;21205;-50
2021/05/27 09:55:39;;;;;;;6.63;5.70;;;15.10;90.20;;;;;;5010326;28;21249;-50
2021/05/27 09:58:09;;;;;;;5.67;5.27;;;15.00;90.30;;;;;;5010075;28;20633;-48
2021/05/27 10:00:36;;;;;;;6.10;5.50;;;15.10;90.30;;;;;;5010115;28;20987;-48
2021/05/27 10:03:23;;;;;;;4.70;4.40;;;15.20;90.20;;;;;;5010000;28;20694;-48
2021/05/27 10:05:50;;;;;;;5.03;4.63;;;15.20;89.70;;;;;;5010062;28;20749;-48
2021/05/27 10:08:17;;;;;;;4.70;4.30;;;15.20;90.20;;;;;;5010047;28;20624;-48
2021/05/27 10:10:44;;;;;;;5.20;4.80;;;15.20;90.40;;;;;;5010025;28;20660;-47
2021/05/27 10:13:12;;;;;;;5.17;3.90;;;15.30;89.80;;;;;;5010127;28;20698;-48
2021/05/27 10:15:39;;;;;;;4.93;4.43;;;15.40;89.60;;;;;;5009648;28;20782;-48
2021/05/27 10:18:06;;;;;;;3.27;2.97;;;15.40;89.50;;;;;;5010154;28;20668;-48
2021/05/27 10:20:34;;;;;;;4.97;4.57;;;15.50;88.10;;;;;;5010643;28;20873;-48
2021/05/27 10:23:03;;;;;;;3.10;2.80;;;15.60;88.60;;;;;;5010796;28;20758;-48
2021/05/27 10:25:30;;;;;;;4.10;3.80;;;15.80;88.10;;;;;;5010606;28;21011;-48
2021/05/27 10:27:58;;;;;;;2.97;2.50;;;15.90;86.30;;;;;;5010091;28;20654;-48
2021/05/27 10:30:25;;;;;;;3.10;2.80;;;15.80;84.60;;;;;;5009900;28;21050;-48
2021/05/27 10:32:56;;;;;;;4.27;3.87;;;15.70;84.00;;;;;;5010703;28;20956;-49
2021/05/27 10:35:23;;;;;;;4.30;3.23;;;15.50;84.20;;;;;;5010700;28;20755;-48
2021/05/27 10:37:50;;;;;;;5.27;4.00;;;15.40;86.00;;;;;;5009749;28;20635;-49
2021/05/27 10:40:40;;;;;;;2.97;2.77;;;15.30;86.40;;;;;;5010328;28;20642;-48
2021/05/27 10:43:12;;;;;;;4.93;3.23;;;15.40;86.70;;;;;;5009632;28;20711;-49
2021/05/27 10:46:07;;;;;;;4.30;4.00;;;15.30;87.70;;;;;;5009913;28;21062;-48
2021/05/27 10:48:45;;;;;;;3.40;3.10;;;15.30;89.10;;;;;;5010156;28;20640;-48
2021/05/27 10:51:24;;;;;;;4.87;4.13;;;15.20;90.10;;;;;;5010279;28;20973;-48
2021/05/27 10:53:58;;;;;;;5.00;3.53;;;15.20;91.40;;;;;;5009310;28;20926;-49
2021/05/27 10:56:43;;;;;;;5.73;3.80;;;15.20;91.00;;;;;;5011310;28;21157;-49
2021/05/27 10:59:11;;;;;;;4.67;4.27;;;15.30;91.10;;;;;;5010009;28;21030;-49
2021/05/27 11:01:53;;;;;;;4.63;4.23;;;15.40;90.50;;;;;;5010667;28;20631;-49
2021/05/27 11:04:28;;;;;;;2.93;2.73;;;15.40;90.80;;;;;;5010361;28;20639;-49
2021/05/27 11:07:10;;;;;;;2.80;2.57;;;15.50;90.40;;;;;;5010299;28;20709;-49
2021/05/27 11:09:38;;;;;;;4.70;4.20;;;15.70;90.70;;;;;;4997139;28;20635;-49
2021/05/27 11:12:18;;;;;;;5.40;3.67;;;15.80;89.80;;;;;;5008648;28;20736;-51
2021/05/27 11:14:46;;;;;;;4.10;3.00;;;15.90;87.90;;;;;;5009037;28;20654;-49
2021/05/27 11:17:21;;;;;;;5.03;3.00;;;16.00;86.00;;;;;;5008498;28;20687;-48
2021/05/27 11:19:52;;;;;;;2.90;2.70;;;16.10;85.70;;;;;;5008512;28;20627;-49
2021/05/27 11:22:43;;;;;;;3.60;3.30;;;16.10;85.40;;;;;;5009154;28;20807;-49
2021/05/27 11:25:41;;;;;;;4.93;3.40;;;16.10;85.50;;;;;;5009997;28;20654;-50
2021/05/27 11:28:35;;;;;;;2.93;2.57;;;16.10;85.60;;;;;;5013539;28;20658;-50
2021/05/27 11:31:03;;;;;;;2.87;2.63;;;16.20;83.90;;;;;;5013500;28;20623;-49
2021/05/27 11:33:40;;;;;;;2.33;2.13;;;16.30;82.70;;;;;;5013779;28;20734;-50
2021/05/27 11:36:27;;;;;;;2.50;2.30;;;16.30;82.20;;;;;;5012829;28;20761;-49
2021/05/27 11:38:54;;;;;;;2.63;2.43;;;16.30;81.40;;;;;;5013119;28;20663;-49
2021/05/27 11:41:22;;;;;;;2.40;2.20;;;16.30;81.20;;;;;;5013157;28;20705;-49
2021/05/27 11:44:00;;;;;;;2.30;2.10;;;16.20;81.00;;;;;;5012915;28;21103;-49
2021/05/27 11:46:29;;;;;;;3.00;2.20;;;16.20;81.20;;;;;;5013223;28;20652;-50
2021/05/27 11:48:57;;;;;;;3.27;2.20;;;16.20;81.90;;;;;;5012308;28;21184;-48
2021/05/27 11:51:26;;;;;;;3.00;2.80;;;16.30;81.80;;;;;;5013040;28;21039;-49
2021/05/27 11:53:54;;;;;;;2.80;2.13;;;16.30;80.50;;;;;;5012719;28;20635;-51
2021/05/27 11:56:36;;;;;;;2.90;2.63;;;16.30;80.90;;;;;;5012962;28;20993;-50
2021/05/27 11:59:04;;;;;;;3.73;2.37;;;16.10;79.30;;;;;;5012705;28;20980;-49
2021/05/27 12:01:31;;;;;;;3.23;2.93;;;16.00;81.10;;;;;;5012251;28;20647;-48
2021/05/27 12:04:25;;;;;;;2.60;2.40;;;15.90;82.40;;;;;;5012348;28;20660;-48
2021/05/27 12:06:56;;;;;;;2.83;2.33;;;15.90;82.10;;;;;;5012802;28;20675;-50
2021/05/27 12:09:25;;;;;;;1.90;1.80;;;15.90;82.70;;;;;;5012436;28;21173;-49
2021/05/27 12:11:53;;;;;;;2.30;2.10;;;15.90;81.50;;;;;;5012304;28;21025;-47
2021/05/27 12:14:20;;;;;;;1.90;1.80;;;15.90;83.80;;;;;;5012264;28;20659;-50
2021/05/27 12:16:46;;;;;;;2.87;2.47;;;15.90;84.40;;;;;;5012160;28;20647;-47
2021/05/27 12:19:13;;;;;;;2.57;2.37;;;15.90;85.70;;;;;;5012511;28;21204;-47
2021/05/27 12:21:54;;;;;;;3.50;3.20;;;15.80;85.00;;;;;;5013316;28;20738;-48
2021/05/27 12:24:25;;;;;;;16.20;10.10;;;15.70;87.60;;;;;;5015644;28;21179;-48
2021/05/27 12:26:52;;;;;;;4.03;3.30;;;15.60;86.80;;;;;;5012669;28;20695;-48
2021/05/27 12:29:19;;;;;;;3.00;2.63;;;15.60;88.40;;;;;;5013460;28;20642;-50
2021/05/27 12:31:46;;;;;;;3.63;3.43;;;15.60;90.20;;;;;;5012329;28;20736;-48
2021/05/27 12:34:15;;;;;;;5.50;3.47;;;15.50;90.10;;;;;;5011508;28;20771;-49
2021/05/27 12:36:56;;;;;;;3.10;2.83;;;15.40;90.90;;;;;;5011385;28;20786;-49
2021/05/27 12:39:34;;;;;;;3.60;3.30;;;15.40;92.10;;;;;;5011636;28;20670;-49
2021/05/27 12:42:03;;;;;;;3.87;3.50;;;15.40;92.10;;;;;;5012073;28;20751;-49
2021/05/27 12:44:31;;;;;;;3.40;3.20;;;15.40;92.70;;;;;;5011856;28;21266;-50
2021/05/27 12:46:58;;;;;;;3.63;3.33;;;15.30;92.80;;;;;;5011451;28;20702;-49
2021/05/27 12:49:31;;;;;;;3.07;2.77;;;15.40;93.20;;;;;;5011563;28;20672;-49
2021/05/27 12:51:58;;;;;;;3.70;3.40;;;15.40;93.30;;;;;;5011665;28;21009;-49
2021/05/27 12:54:25;;;;;;;3.73;3.23;;;15.40;93.40;;;;;;5009839;28;20661;-49
2021/05/27 12:57:03;;;;;;;5.43;4.93;;;15.40;93.70;;;;;;5011780;28;20782;-50
2021/05/27 12:59:30;;;;;;;3.23;2.93;;;15.40;94.00;;;;;;5011041;28;20659;-49
2021/05/27 13:01:58;;;;;;;4.30;3.30;;;15.30;93.70;;;;;;5011618;28;20664;-49
2021/05/27 13:04:28;;;;;;;4.03;3.57;;;15.20;93.10;;;;;;5011162;28;21227;-50